Terminal Aerodrome Forecast
Issued by NWS Spokane, WA

Home | Current Version | Previous Version | Text Only | Print | Product List | Glossary On
Versions: 1 2 3 4 5 6 7 8 9 10 11 12 13 14 15 16 17 18 19 20 21
000
FTUS46 KOTX 060223 CCA
TAFGEG
TAF COR
KGEG 060223Z 0602/0624 11006KT P6SM BKN029 BKN110
     FM060400 09006KT 6SM -SN BKN025 OVC050
     FM060600 08006KT 3SM -SN BKN015 BKN030 OVC050
     FM060900 06008KT 5SM -SN BKN035 OVC050
     FM061400 04010KT P6SM BKN060 OVC100
     FM061900 04010KT P6SM SCT120 BKN200=

USA.gov is the U.S. government's official web portal to all federal, state and local government web resources and services.